createdAt,value
2023-02-03T00:00:47.649Z,1162
2023-02-03T00:20:47.688Z,1161
2023-02-03T00:40:39.728Z,1160
2023-02-03T01:00:39.804Z,1143
2023-02-03T01:20:39.860Z,1138
2023-02-03T01:40:47.938Z,1132
2023-02-03T02:00:39.978Z,1136
2023-02-03T03:20:48.239Z,1121
2023-02-03T03:40:48.324Z,1118
2023-02-03T04:00:40.384Z,1116
2023-02-03T04:20:40.428Z,1115
2023-02-03T04:40:40.454Z,1110
2023-02-03T05:00:56.612Z,1110
2023-02-03T05:20:56.589Z,1109
2023-02-03T05:40:40.687Z,1111
2023-02-03T06:00:40.696Z,1103
2023-02-03T06:40:40.823Z,1108
2023-02-03T07:00:40.941Z,1110
2023-02-03T07:20:48.936Z,1103
2023-02-03T07:40:41.021Z,1100
2023-02-03T08:00:41.061Z,1091
2023-02-03T08:20:49.147Z,1081
2023-02-03T08:40:41.174Z,1077
2023-02-03T09:00:49.246Z,1077
2023-02-03T09:20:41.306Z,1085
2023-02-03T10:00:41.455Z,1099
2023-02-03T10:20:41.498Z,1099
2023-02-03T10:40:41.581Z,1100
2023-02-03T11:00:41.636Z,1099
2023-02-03T11:40:41.742Z,1097
2023-02-03T12:00:41.824Z,1091
2023-02-03T12:20:41.837Z,1093
2023-02-03T12:40:41.929Z,1090
2023-02-03T13:00:58.015Z,1095
2023-02-03T13:20:58.040Z,1098
2023-02-03T13:40:58.126Z,1097
2023-02-03T14:00:42.151Z,1096
2023-02-03T14:20:50.226Z,1098
2023-02-03T14:40:42.251Z,1098
2023-02-03T15:00:50.313Z,1097
2023-02-03T15:40:42.440Z,1107
2023-02-03T16:00:42.519Z,1106
2023-02-03T16:20:42.587Z,1109
2023-02-03T16:40:42.628Z,1114
2023-02-03T17:00:42.740Z,1112
2023-02-03T17:20:42.757Z,1095
2023-02-03T18:00:42.883Z,1123
2023-02-03T18:20:50.925Z,1118
2023-02-03T18:40:42.988Z,1116
2023-02-03T19:00:43.042Z,1110
2023-02-03T19:20:43.101Z,1106
2023-02-03T19:40:43.184Z,1102
2023-02-03T20:00:51.262Z,1102
2023-02-03T20:20:43.303Z,1104
2023-02-03T21:20:42.739Z,1101
2023-02-03T21:40:43.546Z,1100
2023-02-03T22:40:43.762Z,1094
2023-02-03T23:00:43.813Z,1096
2023-02-03T23:20:43.884Z,1091
2023-02-03T23:40:44.028Z,1080
